Time;durP1;ratioP1;P1;durP2;ratioP2;P2;SDS_P1;SDS_P2;PMS_P1;PMS_P2;Temp;Humidity;BMP_temperature;BMP_pressure;BME280_temperature;BME280_humidity;BME280_pressure;Samples;Min_cycle;Max_cycle;Signal;HPM_P1;HPM_P2
2023/01/06 00:00:39;;;;;;;5.80;4.45;;;;;;;;;;5040048;28;20047;-75
2023/01/06 00:03:05;;;;;;;7.38;4.78;;;;;;;;;;5041251;28;20032;-75
2023/01/06 00:05:32;;;;;;;6.97;5.63;;;;;;;;;;5039259;28;20037;-75
2023/01/06 00:07:58;;;;;;;6.78;4.53;;;;;;;;;;5042844;28;20109;-75
2023/01/06 00:10:24;;;;;;;5.75;3.92;;;;;;;;;;5039779;28;20036;-74
2023/01/06 00:12:51;;;;;;;6.50;4.47;;;;;;;;;;5040624;28;20246;-75
2023/01/06 00:15:18;;;;;;;7.03;4.32;;;;;;;;;;5042314;28;20055;-75
2023/01/06 00:17:44;;;;;;;5.25;4.05;;;;;;;;;;5039507;28;20035;-75
2023/01/06 00:20:11;;;;;;;6.43;4.30;;;;;;;;;;5040549;28;20095;-74
2023/01/06 00:22:41;;;;;;;6.93;4.28;;;;;;;;;;5041313;28;20654;-74
2023/01/06 00:25:10;;;;;;;5.47;4.22;;;;;;;;;;5041675;28;20036;-73
2023/01/06 00:27:37;;;;;;;5.03;4.25;;;;;;;;;;5042116;28;20089;-75
2023/01/06 00:30:04;;;;;;;6.57;4.18;;;;;;;;;;5040153;28;20057;-74
2023/01/06 00:32:30;;;;;;;5.32;4.13;;;;;;;;;;5035015;28;20028;-74
2023/01/06 00:34:56;;;;;;;4.85;3.95;;;;;;;;;;5040401;28;20896;-74
2023/01/06 00:37:22;;;;;;;5.35;4.70;;;;;;;;;;5039708;28;20545;-74
2023/01/06 00:39:48;;;;;;;7.75;4.25;;;;;;;;;;5034185;28;20033;-74
2023/01/06 00:42:15;;;;;;;4.63;3.95;;;;;;;;;;5041035;28;20029;-74
2023/01/06 00:44:41;;;;;;;5.65;3.92;;;;;;;;;;5039912;28;20094;-73
2023/01/06 00:47:08;;;;;;;7.30;4.10;;;;;;;;;;5041066;28;20017;-74
2023/01/06 00:49:34;;;;;;;5.45;4.43;;;;;;;;;;5040881;28;20029;-74
2023/01/06 00:52:01;;;;;;;5.22;4.30;;;;;;;;;;5036494;28;20061;-74
2023/01/06 00:54:27;;;;;;;6.95;4.57;;;;;;;;;;5038259;28;20550;-74
2023/01/06 00:56:54;;;;;;;6.28;4.10;;;;;;;;;;5038483;28;20123;-73
2023/01/06 00:59:21;;;;;;;4.45;3.67;;;;;;;;;;5041450;28;20040;-74
2023/01/06 01:01:48;;;;;;;6.13;4.05;;;;;;;;;;5040196;28;20032;-75
2023/01/06 01:04:14;;;;;;;6.93;4.38;;;;;;;;;;5037304;28;20041;-74
2023/01/06 01:06:41;;;;;;;5.20;4.40;;;;;;;;;;5038756;28;20109;-74
2023/01/06 01:09:07;;;;;;;5.53;4.22;;;;;;;;;;5038110;28;20025;-74
2023/01/06 01:14:19;;;;;;;6.70;4.47;;;;;;;;;;5038242;28;20036;-74
2023/01/06 01:16:45;;;;;;;5.88;4.07;;;;;;;;;;5033884;28;20028;-75
2023/01/06 01:19:12;;;;;;;5.03;4.20;;;;;;;;;;5042080;28;20593;-74
2023/01/06 01:21:39;;;;;;;4.80;3.90;;;;;;;;;;5038781;28;20029;-75
2023/01/06 01:24:05;;;;;;;5.68;4.45;;;;;;;;;;5042323;28;20017;-75
2023/01/06 01:26:31;;;;;;;4.93;4.28;;;;;;;;;;5037690;28;20025;-75
2023/01/06 01:28:57;;;;;;;5.35;4.30;;;;;;;;;;5039389;28;20026;-74
2023/01/06 01:31:24;;;;;;;6.05;4.47;;;;;;;;;;5039508;28;20635;-74
2023/01/06 01:33:50;;;;;;;7.30;5.18;;;;;;;;;;5041388;28;20028;-74
2023/01/06 01:36:17;;;;;;;6.90;4.93;;;;;;;;;;5036954;28;20025;-74
2023/01/06 01:38:43;;;;;;;7.47;4.97;;;;;;;;;;5035893;28;20048;-74
2023/01/06 01:41:14;;;;;;;6.65;4.30;;;;;;;;;;5039468;28;20037;-74
2023/01/06 01:43:44;;;;;;;8.23;5.22;;;;;;;;;;5041310;28;20091;-74
2023/01/06 01:46:11;;;;;;;7.97;4.72;;;;;;;;;;5040226;28;20235;-74
2023/01/06 01:48:38;;;;;;;6.60;4.65;;;;;;;;;;5034499;28;20066;-74
2023/01/06 01:51:06;;;;;;;8.02;4.82;;;;;;;;;;5043313;28;20033;-74
2023/01/06 01:53:33;;;;;;;7.28;5.50;;;;;;;;;;5038062;28;20035;-74
2023/01/06 01:56:02;;;;;;;5.40;4.65;;;;;;;;;;5038396;28;20032;-74
2023/01/06 01:58:30;;;;;;;9.65;4.95;;;;;;;;;;5035569;28;20527;-78
2023/01/06 02:00:56;;;;;;;7.43;5.40;;;;;;;;;;5035190;28;20033;-75
2023/01/06 02:03:24;;;;;;;9.30;4.63;;;;;;;;;;5033157;28;20029;-75
2023/01/06 02:05:53;;;;;;;6.05;5.25;;;;;;;;;;5024750;28;20025;-74
2023/01/06 02:08:25;;;;;;;11.18;4.78;;;;;;;;;;5037060;28;20036;-74
2023/01/06 02:10:51;;;;;;;5.93;4.60;;;;;;;;;;5033294;28;20381;-74
2023/01/06 02:13:17;;;;;;;7.47;4.68;;;;;;;;;;5032527;28;20509;-74
2023/01/06 02:15:43;;;;;;;6.32;4.85;;;;;;;;;;5038342;28;20033;-75
2023/01/06 02:18:28;;;;;;;7.55;5.18;;;;;;;;;;5034264;28;20033;-74
2023/01/06 02:21:03;;;;;;;5.82;4.70;;;;;;;;;;5034354;28;20196;-75
2023/01/06 02:23:32;;;;;;;6.78;4.95;;;;;;;;;;5034437;28;20348;-74
2023/01/06 02:25:58;;;;;;;7.80;4.85;;;;;;;;;;5033649;28;20025;-77
2023/01/06 02:28:43;;;;;;;5.38;4.75;;;;;;;;;;5037403;28;20021;-75
2023/01/06 02:31:30;;;;;;;6.13;4.82;;;;;;;;;;5030050;28;20048;-75
2023/01/06 02:34:09;;;;;;;5.57;4.65;;;;;;;;;;5033245;28;20020;-74
2023/01/06 02:36:35;;;;;;;5.63;4.40;;;;;;;;;;5031697;28;20029;-75
2023/01/06 02:39:02;;;;;;;5.75;4.55;;;;;;;;;;5032598;28;20021;-75
2023/01/06 02:41:34;;;;;;;7.78;4.43;;;;;;;;;;5036261;28;20059;-75
2023/01/06 02:44:19;;;;;;;6.78;4.78;;;;;;;;;;5034663;28;20549;-75
2023/01/06 02:47:15;;;;;;;6.03;4.68;;;;;;;;;;5033717;28;20021;-74
2023/01/06 02:49:41;;;;;;;5.57;4.57;;;;;;;;;;5031614;28;20777;-75
2023/01/06 02:52:30;;;;;;;6.93;4.88;;;;;;;;;;5032957;28;20557;-74
2023/01/06 02:55:00;;;;;;;6.20;4.60;;;;;;;;;;5029675;28;20032;-75
2023/01/06 02:57:35;;;;;;;5.68;4.55;;;;;;;;;;5036645;28;20031;-74
2023/01/06 03:00:20;;;;;;;5.75;5.03;;;;;;;;;;5036024;28;20037;-75
2023/01/06 03:02:49;;;;;;;7.55;5.03;;;;;;;;;;5036793;28;20033;-73
2023/01/06 03:05:16;;;;;;;7.00;4.55;;;;;;;;;;5034577;28;20091;-74
2023/01/06 03:07:44;;;;;;;6.63;4.80;;;;;;;;;;5035617;28;20029;-75
2023/01/06 03:10:11;;;;;;;6.13;4.40;;;;;;;;;;5027320;28;20026;-74
2023/01/06 03:12:45;;;;;;;9.40;5.95;;;;;;;;;;5039684;28;20021;-74
2023/01/06 03:15:11;;;;;;;5.60;4.55;;;;;;;;;;5033141;28;20037;-74
2023/01/06 03:17:37;;;;;;;6.22;4.97;;;;;;;;;;5035013;28;20021;-75
2023/01/06 03:20:04;;;;;;;5.57;4.28;;;;;;;;;;5033972;28;20639;-74
2023/01/06 03:22:31;;;;;;;8.32;5.18;;;;;;;;;;5040423;28;20279;-74
2023/01/06 03:24:58;;;;;;;5.80;4.53;;;;;;;;;;5036373;28;20031;-74
2023/01/06 03:27:25;;;;;;;6.75;5.22;;;;;;;;;;5039222;28;20032;-75
2023/01/06 03:29:51;;;;;;;5.40;4.75;;;;;;;;;;5038654;28;20040;-74
2023/01/06 03:32:22;;;;;;;8.23;5.30;;;;;;;;;;5032953;28;20064;-74
2023/01/06 03:34:57;;;;;;;6.13;4.75;;;;;;;;;;5038483;28;20104;-74
2023/01/06 03:37:29;;;;;;;7.70;5.65;;;;;;;;;;5033983;28;20033;-74
2023/01/06 03:40:08;;;;;;;6.78;5.03;;;;;;;;;;5035585;28;20037;-75
2023/01/06 03:45:28;;;;;;;8.32;5.07;;;;;;;;;;5033551;28;20535;-74
2023/01/06 03:48:01;;;;;;;5.88;5.05;;;;;;;;;;5039636;28;20122;-75
2023/01/06 03:50:36;;;;;;;7.53;4.75;;;;;;;;;;5032176;28;20060;-74
2023/01/06 03:53:21;;;;;;;7.72;5.00;;;;;;;;;;5034178;28;20077;-74
2023/01/06 03:55:51;;;;;;;6.57;4.75;;;;;;;;;;5033630;28;20047;-74
2023/01/06 03:58:19;;;;;;;7.88;4.65;;;;;;;;;;5038821;28;20384;-75
2023/01/06 04:00:46;;;;;;;7.75;5.35;;;;;;;;;;5036502;28;20119;-75
2023/01/06 04:03:13;;;;;;;8.35;4.90;;;;;;;;;;5033988;28;20025;-74
2023/01/06 04:05:40;;;;;;;8.18;6.28;;;;;;;;;;5033286;28;20021;-75
2023/01/06 04:08:06;;;;;;;6.05;5.03;;;;;;;;;;5037948;28;20025;-74
2023/01/06 04:10:32;;;;;;;6.50;5.40;;;;;;;;;;5039114;28;20057;-74
2023/01/06 04:12:58;;;;;;;7.35;5.68;;;;;;;;;;5037457;28;20086;-74
2023/01/06 04:15:28;;;;;;;6.55;5.20;;;;;;;;;;5034329;28;20036;-74
2023/01/06 04:17:54;;;;;;;10.02;5.15;;;;;;;;;;5028245;28;20866;-75
2023/01/06 04:20:25;;;;;;;6.20;5.15;;;;;;;;;;5034537;28;20033;-75
2023/01/06 04:22:55;;;;;;;7.90;5.68;;;;;;;;;;5035949;28;20021;-74
2023/01/06 04:25:22;;;;;;;7.75;5.63;;;;;;;;;;5033156;28;20025;-75
2023/01/06 04:27:48;;;;;;;5.78;5.10;;;;;;;;;;5029772;28;20021;-74
2023/01/06 04:30:14;;;;;;;9.38;5.25;;;;;;;;;;5033202;28;20060;-75
2023/01/06 04:32:40;;;;;;;8.20;5.45;;;;;;;;;;5038651;28;20046;-74
2023/01/06 04:35:07;;;;;;;9.27;5.13;;;;;;;;;;5032712;28;20637;-74
2023/01/06 04:37:34;;;;;;;6.45;5.35;;;;;;;;;;5035900;28;20108;-74
2023/01/06 04:40:00;;;;;;;7.05;5.90;;;;;;;;;;5032557;28;20033;-74
2023/01/06 04:42:26;;;;;;;8.02;5.65;;;;;;;;;;5036858;28;20486;-75
2023/01/06 04:44:52;;;;;;;6.18;4.93;;;;;;;;;;5035007;28;20527;-74
2023/01/06 04:47:18;;;;;;;6.68;5.32;;;;;;;;;;5032983;28;20021;-74
2023/01/06 04:49:45;;;;;;;6.47;5.70;;;;;;;;;;5037590;28;20029;-74
2023/01/06 04:52:11;;;;;;;11.35;6.05;;;;;;;;;;5030594;28;20080;-75
2023/01/06 04:54:37;;;;;;;6.18;5.10;;;;;;;;;;5036618;28;20505;-74
2023/01/06 04:57:03;;;;;;;8.38;5.88;;;;;;;;;;5030248;28;20835;-74
2023/01/06 04:59:29;;;;;;;8.32;5.22;;;;;;;;;;5032942;28;20520;-74
2023/01/06 05:01:55;;;;;;;8.07;5.65;;;;;;;;;;5033965;28;20523;-73
2023/01/06 05:04:22;;;;;;;7.53;5.10;;;;;;;;;;5031499;28;20590;-74
2023/01/06 05:06:48;;;;;;;6.82;5.22;;;;;;;;;;5036294;28;20029;-74
2023/01/06 05:09:14;;;;;;;7.15;5.43;;;;;;;;;;5037741;28;20159;-74
2023/01/06 05:11:40;;;;;;;6.93;5.28;;;;;;;;;;5035948;28;20032;-74
2023/01/06 05:14:06;;;;;;;5.88;4.97;;;;;;;;;;5034556;28;20787;-74
2023/01/06 05:16:33;;;;;;;9.05;5.78;;;;;;;;;;5033776;28;20030;-74
2023/01/06 05:19:00;;;;;;;6.65;5.22;;;;;;;;;;5038984;28;20081;-74
2023/01/06 05:21:28;;;;;;;6.03;5.40;;;;;;;;;;5033776;28;20036;-74
2023/01/06 05:23:54;;;;;;;8.75;5.63;;;;;;;;;;5031574;28;20040;-74
2023/01/06 05:26:22;;;;;;;6.38;5.15;;;;;;;;;;5035576;28;20075;-75
2023/01/06 05:28:48;;;;;;;7.03;5.28;;;;;;;;;;5036308;28;20028;-75
2023/01/06 05:31:14;;;;;;;7.10;5.30;;;;;;;;;;5038886;28;20924;-74
2023/01/06 05:33:40;;;;;;;6.32;5.35;;;;;;;;;;5037347;28;20121;-74
2023/01/06 05:36:15;;;;;;;9.00;6.32;;;;;;;;;;5032080;28;20110;-74
2023/01/06 05:38:41;;;;;;;6.50;4.85;;;;;;;;;;5037255;28;20743;-74
2023/01/06 05:41:07;;;;;;;7.72;6.28;;;;;;;;;;5040159;28;20037;-74
2023/01/06 05:43:35;;;;;;;7.93;6.38;;;;;;;;;;5035209;28;20378;-74
2023/01/06 05:46:05;;;;;;;6.93;4.88;;;;;;;;;;5040258;28;20017;-74
2023/01/06 05:48:31;;;;;;;8.93;5.35;;;;;;;;;;5032129;28;20024;-74
2023/01/06 05:51:05;;;;;;;8.77;6.22;;;;;;;;;;5034443;28;20044;-74
2023/01/06 05:53:32;;;;;;;8.82;5.88;;;;;;;;;;5034733;28;20032;-75
2023/01/06 05:55:59;;;;;;;6.35;5.43;;;;;;;;;;5036955;28;20040;-74
2023/01/06 05:58:25;;;;;;;6.97;6.05;;;;;;;;;;5033687;28;20086;-75
2023/01/06 06:00:51;;;;;;;7.97;5.68;;;;;;;;;;5035410;28;20045;-74
2023/01/06 06:03:17;;;;;;;14.55;6.60;;;;;;;;;;5039048;28;20032;-74
2023/01/06 06:05:43;;;;;;;7.28;6.22;;;;;;;;;;5030627;28;20474;-74
2023/01/06 06:08:10;;;;;;;9.38;5.68;;;;;;;;;;5037215;28;20613;-74
2023/01/06 06:10:36;;;;;;;14.23;6.65;;;;;;;;;;5034713;28;20501;-74
2023/01/06 06:13:02;;;;;;;7.65;5.60;;;;;;;;;;5035794;28;20144;-74
2023/01/06 06:15:28;;;;;;;8.20;5.97;;;;;;;;;;5035460;28;20021;-74
2023/01/06 06:17:54;;;;;;;7.20;6.22;;;;;;;;;;5033509;28;20020;-74
2023/01/06 06:20:20;;;;;;;8.15;6.20;;;;;;;;;;5032776;28;20200;-74
2023/01/06 06:22:46;;;;;;;8.70;5.78;;;;;;;;;;5037110;28;20078;-75
2023/01/06 06:25:13;;;;;;;8.35;5.93;;;;;;;;;;5035793;28;20680;-74
2023/01/06 06:27:39;;;;;;;9.20;5.68;;;;;;;;;;5033382;28;20096;-75
2023/01/06 06:30:06;;;;;;;7.32;5.97;;;;;;;;;;5036210;28;20513;-74
2023/01/06 06:32:32;;;;;;;7.28;5.65;;;;;;;;;;5032597;28;20124;-74
2023/01/06 06:34:58;;;;;;;6.65;5.80;;;;;;;;;;5036922;28;20176;-74
2023/01/06 06:37:25;;;;;;;7.00;5.90;;;;;;;;;;5039427;28;20017;-74
2023/01/06 06:39:51;;;;;;;5.80;5.20;;;;;;;;;;5030510;28;20037;-74
2023/01/06 06:42:17;;;;;;;8.65;6.10;;;;;;;;;;5035879;28;20024;-74
2023/01/06 06:44:43;;;;;;;7.85;6.10;;;;;;;;;;5035259;28;20027;-74
2023/01/06 06:47:09;;;;;;;6.82;5.38;;;;;;;;;;5041073;28;20031;-74
2023/01/06 06:49:35;;;;;;;9.70;6.63;;;;;;;;;;5035410;28;20033;-74
2023/01/06 06:52:01;;;;;;;8.23;5.85;;;;;;;;;;5036824;28;20017;-74
2023/01/06 06:54:27;;;;;;;9.80;6.28;;;;;;;;;;5032966;28;20039;-75
2023/01/06 06:56:55;;;;;;;9.10;6.28;;;;;;;;;;5033572;28;20021;-74
2023/01/06 06:59:21;;;;;;;7.80;5.38;;;;;;;;;;5040591;28;20122;-74
2023/01/06 07:01:48;;;;;;;6.50;5.32;;;;;;;;;;5036669;28;20032;-75
2023/01/06 07:04:14;;;;;;;7.93;5.88;;;;;;;;;;5036015;28;20027;-74
2023/01/06 07:06:40;;;;;;;8.13;6.03;;;;;;;;;;5036375;28;20044;-75
2023/01/06 07:09:06;;;;;;;10.68;6.68;;;;;;;;;;5040561;28;20066;-75
2023/01/06 07:11:32;;;;;;;7.25;5.90;;;;;;;;;;5034823;28;20029;-74
2023/01/06 07:13:59;;;;;;;9.18;6.65;;;;;;;;;;5036174;28;20036;-75
2023/01/06 07:16:25;;;;;;;7.70;5.93;;;;;;;;;;5034083;28;20500;-75
2023/01/06 07:18:52;;;;;;;9.25;6.35;;;;;;;;;;5039705;28;20408;-74
2023/01/06 07:21:18;;;;;;;9.75;6.43;;;;;;;;;;5032600;28;20040;-73
2023/01/06 07:23:44;;;;;;;7.18;6.05;;;;;;;;;;5034579;28;20025;-74
2023/01/06 07:26:10;;;;;;;7.80;6.32;;;;;;;;;;5036596;28;20029;-73
2023/01/06 07:28:37;;;;;;;12.18;6.45;;;;;;;;;;5034234;28;20021;-75
2023/01/06 07:31:03;;;;;;;8.10;6.50;;;;;;;;;;5040451;28;20044;-74
2023/01/06 07:33:29;;;;;;;9.43;6.88;;;;;;;;;;5036269;28;20029;-74
2023/01/06 07:35:56;;;;;;;11.50;6.22;;;;;;;;;;5034734;28;20029;-74
2023/01/06 07:38:23;;;;;;;8.10;6.68;;;;;;;;;;5030905;28;20585;-74
2023/01/06 07:40:49;;;;;;;11.98;6.88;;;;;;;;;;5034513;28;20053;-73
2023/01/06 07:43:16;;;;;;;8.35;6.70;;;;;;;;;;5038301;28;20090;-74
2023/01/06 07:45:42;;;;;;;8.10;6.13;;;;;;;;;;5037779;28;20029;-74
2023/01/06 07:48:08;;;;;;;8.77;5.88;;;;;;;;;;5037892;28;20567;-74
2023/01/06 07:50:34;;;;;;;7.78;5.68;;;;;;;;;;5034250;28;20479;-74
2023/01/06 07:53:02;;;;;;;6.97;5.55;;;;;;;;;;5036720;28;20219;-75
2023/01/06 07:55:29;;;;;;;8.90;6.18;;;;;;;;;;5035185;28;20104;-74
2023/01/06 07:57:55;;;;;;;8.40;6.22;;;;;;;;;;5035416;28;20030;-74
2023/01/06 08:00:21;;;;;;;10.18;7.10;;;;;;;;;;5033884;28;20506;-74
2023/01/06 08:02:48;;;;;;;9.60;6.93;;;;;;;;;;5034881;28;20117;-74
2023/01/06 08:05:14;;;;;;;10.45;8.30;;;;;;;;;;5037651;28;20078;-74
2023/01/06 08:07:40;;;;;;;12.52;8.48;;;;;;;;;;5037615;28;20009;-74
2023/01/06 08:10:06;;;;;;;10.43;8.15;;;;;;;;;;5034651;28;20044;-74
2023/01/06 08:12:33;;;;;;;10.73;7.75;;;;;;;;;;5037069;28;20025;-74
2023/01/06 08:14:59;;;;;;;13.00;8.45;;;;;;;;;;5036346;28;20029;-74
2023/01/06 08:17:25;;;;;;;10.13;8.13;;;;;;;;;;5039399;28;20055;-74
2023/01/06 08:19:51;;;;;;;11.52;7.45;;;;;;;;;;5039654;28;20029;-74
2023/01/06 08:22:17;;;;;;;10.95;7.43;;;;;;;;;;5038011;28;20021;-73
2023/01/06 08:24:43;;;;;;;7.90;6.55;;;;;;;;;;5038738;28;20021;-74
2023/01/06 08:27:09;;;;;;;7.80;6.07;;;;;;;;;;5035948;28;20048;-74
2023/01/06 08:29:36;;;;;;;7.97;6.00;;;;;;;;;;5040474;28;20028;-74
2023/01/06 08:32:02;;;;;;;7.07;5.45;;;;;;;;;;5031223;28;20117;-74
2023/01/06 08:34:28;;;;;;;7.93;6.57;;;;;;;;;;5037386;28;20025;-74
2023/01/06 08:36:54;;;;;;;7.78;5.65;;;;;;;;;;5034668;28;20017;-74
2023/01/06 08:39:20;;;;;;;7.78;6.15;;;;;;;;;;5041034;28;20025;-74
2023/01/06 08:41:50;;;;;;;9.70;7.22;;;;;;;;;;5038167;28;20029;-74
2023/01/06 08:44:16;;;;;;;12.10;7.85;;;;;;;;;;5037039;28;20021;-74
2023/01/06 08:46:42;;;;;;;10.57;7.88;;;;;;;;;;5033654;28;20048;-74
2023/01/06 08:49:09;;;;;;;10.05;8.10;;;;;;;;;;5037119;28;20109;-74
2023/01/06 08:51:35;;;;;;;11.98;8.57;;;;;;;;;;5040292;28;20021;-73
2023/01/06 08:54:01;;;;;;;12.70;8.95;;;;;;;;;;5029231;28;20020;-74
2023/01/06 08:56:29;;;;;;;11.68;7.85;;;;;;;;;;5037949;28;20033;-74
2023/01/06 08:58:57;;;;;;;10.05;7.53;;;;;;;;;;5035326;28;20018;-72
2023/01/06 09:01:24;;;;;;;36.28;11.02;;;;;;;;;;5034925;28;20029;-72
2023/01/06 09:03:51;;;;;;;16.98;9.95;;;;;;;;;;5033546;28;20021;-73
2023/01/06 09:06:18;;;;;;;14.18;9.88;;;;;;;;;;5037909;28;20396;-73
2023/01/06 09:08:44;;;;;;;14.27;10.57;;;;;;;;;;5033430;28;20013;-73
2023/01/06 09:11:11;;;;;;;13.68;9.85;;;;;;;;;;5040769;28;20091;-74
2023/01/06 09:13:37;;;;;;;11.73;8.57;;;;;;;;;;5035339;28;20036;-73
2023/01/06 09:16:08;;;;;;;11.30;8.13;;;;;;;;;;5038473;28;20036;-73
2023/01/06 09:18:34;;;;;;;10.88;8.20;;;;;;;;;;5033120;28;20021;-73
2023/01/06 09:21:00;;;;;;;11.48;7.25;;;;;;;;;;5037883;28;20116;-73
2023/01/06 09:23:27;;;;;;;7.95;6.30;;;;;;;;;;5039772;28;20662;-73
2023/01/06 09:25:55;;;;;;;9.88;7.13;;;;;;;;;;5035703;28;20033;-73
2023/01/06 09:28:21;;;;;;;10.57;8.18;;;;;;;;;;5038306;28;20045;-73
2023/01/06 09:30:48;;;;;;;13.07;8.13;;;;;;;;;;5035134;28;20067;-73
2023/01/06 09:33:15;;;;;;;10.77;8.50;;;;;;;;;;5038725;28;20048;-73
2023/01/06 09:35:42;;;;;;;10.85;8.13;;;;;;;;;;5038994;28;20540;-73
2023/01/06 09:38:09;;;;;;;12.25;8.00;;;;;;;;;;5035265;28;20017;-74
2023/01/06 09:40:41;;;;;;;9.68;7.47;;;;;;;;;;5036545;28;20414;-73
2023/01/06 09:43:30;;;;;;;8.00;7.03;;;;;;;;;;5036370;28;20486;-73
2023/01/06 09:46:00;;;;;;;11.23;6.72;;;;;;;;;;5033761;28;20420;-73
2023/01/06 09:48:29;;;;;;;7.82;5.88;;;;;;;;;;5032107;28;20038;-73
2023/01/06 09:51:00;;;;;;;9.18;6.43;;;;;;;;;;5036581;28;20646;-73
2023/01/06 09:53:47;;;;;;;6.77;5.83;;;;;;;;;;5029411;28;20028;-73
2023/01/06 09:56:16;;;;;;;6.43;5.82;;;;;;;;;;5035811;28;20295;-73
2023/01/06 09:58:45;;;;;;;11.27;6.30;;;;;;;;;;5035213;28;20147;-73
2023/01/06 10:01:14;;;;;;;6.30;5.30;;;;;;;;;;5035112;28;20124;-73
2023/01/06 10:03:41;;;;;;;7.25;5.50;;;;;;;;;;5031355;28;20075;-73
2023/01/06 10:06:13;;;;;;;6.40;4.82;;;;;;;;;;5029619;28;20044;-73
2023/01/06 10:08:49;;;;;;;6.72;5.00;;;;;;;;;;5033276;28;20106;-73
2023/01/06 10:11:18;;;;;;;8.68;5.82;;;;;;;;;;5033649;28;20039;-73
2023/01/06 10:13:55;;;;;;;8.80;5.93;;;;;;;;;;5032696;28;20020;-73
2023/01/06 10:16:21;;;;;;;8.07;6.65;;;;;;;;;;5032415;28;20507;-73
2023/01/06 10:18:54;;;;;;;13.55;7.80;;;;;;;;;;5032731;28;20025;-74
2023/01/06 10:21:34;;;;;;;7.25;6.47;;;;;;;;;;5034192;28;20248;-74
2023/01/06 10:24:03;;;;;;;8.73;6.13;;;;;;;;;;5031358;28;20021;-73
2023/01/06 10:26:29;;;;;;;7.55;6.03;;;;;;;;;;5029529;28;20573;-73
2023/01/06 10:28:59;;;;;;;7.82;5.57;;;;;;;;;;5030460;28;20017;-74
2023/01/06 10:31:31;;;;;;;8.30;6.22;;;;;;;;;;5032023;28;20049;-73
2023/01/06 10:33:57;;;;;;;;;;;;;;;;;;5034439;28;20615;-73
2023/01/06 10:36:31;;;;;;;6.38;5.18;;;;;;;;;;5036017;28;19959;-73
2023/01/06 10:38:57;;;;;;;7.72;5.97;;;;;;;;;;5036700;28;20029;-74
2023/01/06 10:41:30;;;;;;;6.65;5.43;;;;;;;;;;5035090;28;20424;-73
2023/01/06 10:43:57;;;;;;;7.68;6.10;;;;;;;;;;5033510;28;20028;-74
2023/01/06 10:46:25;;;;;;;8.93;6.60;;;;;;;;;;5034309;28;20035;-74
2023/01/06 10:48:51;;;;;;;10.00;6.70;;;;;;;;;;5033310;28;20017;-73
2023/01/06 10:51:17;;;;;;;9.20;5.75;;;;;;;;;;5039133;28;20496;-73
2023/01/06 10:53:44;;;;;;;7.50;5.68;;;;;;;;;;5033323;28;20554;-74
2023/01/06 10:56:10;;;;;;;9.85;5.38;;;;;;;;;;5034888;28;20032;-74
2023/01/06 10:58:46;;;;;;;10.23;6.45;;;;;;;;;;5035030;28;20045;-74
2023/01/06 11:01:16;;;;;;;13.50;6.63;;;;;;;;;;5032804;28;20037;-73
2023/01/06 11:03:43;;;;;;;7.10;5.90;;;;;;;;;;5034507;28;20043;-72
2023/01/06 11:06:22;;;;;;;7.68;5.70;;;;;;;;;;5033185;28;20026;-72
2023/01/06 11:08:49;;;;;;;8.02;5.55;;;;;;;;;;5032110;28;20017;-72
2023/01/06 11:11:16;;;;;;;12.82;6.90;;;;;;;;;;5033439;28;20053;-72
2023/01/06 11:13:46;;;;;;;7.50;5.93;;;;;;;;;;5033700;28;20064;-72
2023/01/06 11:16:24;;;;;;;9.02;6.38;;;;;;;;;;5037772;28;20033;-72
2023/01/06 11:18:52;;;;;;;8.27;5.88;;;;;;;;;;5034921;28;20037;-74
2023/01/06 11:21:19;;;;;;;9.15;5.93;;;;;;;;;;5039940;28;20539;-72
2023/01/06 11:23:46;;;;;;;8.77;6.40;;;;;;;;;;5035752;28;20033;-73
2023/01/06 11:26:18;;;;;;;11.35;7.60;;;;;;;;;;5042131;28;20021;-73
2023/01/06 11:28:46;;;;;;;6.88;6.18;;;;;;;;;;5037264;28;20021;-73
2023/01/06 11:31:15;;;;;;;9.63;6.85;;;;;;;;;;5039009;28;20136;-73
2023/01/06 11:33:52;;;;;;;7.28;6.22;;;;;;;;;;5032412;28;20025;-73
2023/01/06 11:36:20;;;;;;;9.68;5.70;;;;;;;;;;5036331;28;20071;-73
2023/01/06 11:38:47;;;;;;;6.82;5.70;;;;;;;;;;5041822;28;20038;-73
2023/01/06 11:41:20;;;;;;;6.63;5.93;;;;;;;;;;5032667;28;20090;-72
2023/01/06 11:43:46;;;;;;;7.53;6.60;;;;;;;;;;5036308;28;20377;-73
2023/01/06 11:46:14;;;;;;;7.93;6.32;;;;;;;;;;5036372;28;20027;-72
2023/01/06 11:48:43;;;;;;;7.72;5.78;;;;;;;;;;5040829;28;20822;-73
2023/01/06 11:51:09;;;;;;;8.40;6.10;;;;;;;;;;5040222;28;20029;-73
2023/01/06 11:53:54;;;;;;;8.27;6.32;;;;;;;;;;5033945;28;20470;-72
2023/01/06 11:56:20;;;;;;;7.07;5.65;;;;;;;;;;5036002;28;20037;-73
2023/01/06 11:58:55;;;;;;;8.70;6.20;;;;;;;;;;5038303;28;20590;-73
2023/01/06 12:01:40;;;;;;;9.82;6.70;;;;;;;;;;5033781;28;20033;-72
2023/01/06 12:04:12;;;;;;;7.80;6.25;;;;;;;;;;5034865;28;20713;-73
2023/01/06 12:06:42;;;;;;;9.68;6.75;;;;;;;;;;5036352;28;20078;-73
2023/01/06 12:09:22;;;;;;;9.43;5.97;;;;;;;;;;5036917;28;20100;-73
2023/01/06 12:11:55;;;;;;;7.40;5.80;;;;;;;;;;5030752;28;20047;-73
2023/01/06 12:14:23;;;;;;;10.75;5.68;;;;;;;;;;5038082;28;20032;-73
2023/01/06 12:17:07;;;;;;;7.45;5.90;;;;;;;;;;5035435;28;20905;-73
2023/01/06 12:19:52;;;;;;;7.30;5.70;;;;;;;;;;5035819;28;20033;-74
2023/01/06 12:22:27;;;;;;;10.15;6.30;;;;;;;;;;5034271;28;20887;-73
2023/01/06 12:24:55;;;;;;;7.53;5.95;;;;;;;;;;5036107;28;20584;-72
2023/01/06 12:27:35;;;;;;;6.68;5.18;;;;;;;;;;5035508;28;20158;-73
2023/01/06 12:30:04;;;;;;;8.02;5.55;;;;;;;;;;5034156;28;20151;-73
2023/01/06 12:32:36;;;;;;;10.60;5.72;;;;;;;;;;5037494;28;20047;-73
2023/01/06 12:35:03;;;;;;;15.07;6.50;;;;;;;;;;5036062;28;20155;-73
2023/01/06 12:37:40;;;;;;;12.48;6.35;;;;;;;;;;5036766;28;20117;-73
2023/01/06 12:40:10;;;;;;;10.25;6.00;;;;;;;;;;5029454;28;20055;-73
2023/01/06 12:42:39;;;;;;;10.80;5.90;;;;;;;;;;5039287;28;20033;-73
2023/01/06 12:45:15;;;;;;;10.15;6.10;;;;;;;;;;5040373;28;20118;-73
2023/01/06 12:47:47;;;;;;;8.38;6.40;;;;;;;;;;5038049;28;20037;-73
2023/01/06 12:50:16;;;;;;;8.98;5.38;;;;;;;;;;5036160;28;20650;-73
2023/01/06 12:52:46;;;;;;;6.90;6.20;;;;;;;;;;5032631;28;20429;-73
2023/01/06 12:55:15;;;;;;;8.35;5.95;;;;;;;;;;5036838;28;20033;-73
2023/01/06 12:57:51;;;;;;;7.40;6.03;;;;;;;;;;5038392;28;20524;-73
2023/01/06 13:00:23;;;;;;;7.22;5.20;;;;;;;;;;5030483;28;20120;-74
2023/01/06 13:02:52;;;;;;;6.28;5.57;;;;;;;;;;5039057;28;20029;-73
2023/01/06 13:05:22;;;;;;;6.97;5.22;;;;;;;;;;5034229;28;20537;-73
2023/01/06 13:07:55;;;;;;;6.93;5.55;;;;;;;;;;5038624;28;20036;-73
2023/01/06 13:10:37;;;;;;;7.82;5.22;;;;;;;;;;5036122;28;20389;-73
2023/01/06 13:13:06;;;;;;;8.55;5.95;;;;;;;;;;5037794;28;20057;-73
2023/01/06 13:15:33;;;;;;;5.82;5.22;;;;;;;;;;5031241;28;20084;-73
2023/01/06 13:18:00;;;;;;;9.82;5.88;;;;;;;;;;5034935;28;20036;-73
2023/01/06 13:20:26;;;;;;;8.52;5.85;;;;;;;;;;5037919;28;20041;-73
2023/01/06 13:22:57;;;;;;;10.43;6.07;;;;;;;;;;5036987;28;20028;-73
2023/01/06 13:25:33;;;;;;;7.93;5.88;;;;;;;;;;5035813;28;20040;-73
2023/01/06 13:28:26;;;;;;;8.32;5.75;;;;;;;;;;5035073;28;20234;-73
2023/01/06 13:30:58;;;;;;;7.72;5.75;;;;;;;;;;5037744;28;20493;-73
2023/01/06 13:33:30;;;;;;;6.85;6.15;;;;;;;;;;5027079;28;20025;-73
2023/01/06 13:36:15;;;;;;;7.25;5.75;;;;;;;;;;5036301;28;20013;-73
2023/01/06 13:38:53;;;;;;;8.05;5.95;;;;;;;;;;5034142;28;20024;-73
2023/01/06 13:41:21;;;;;;;9.10;6.70;;;;;;;;;;5038832;28;20130;-73
2023/01/06 13:43:49;;;;;;;8.55;7.22;;;;;;;;;;5036373;28;20216;-73
2023/01/06 13:46:16;;;;;;;9.45;6.60;;;;;;;;;;5036782;28;20039;-73
2023/01/06 13:48:45;;;;;;;8.27;6.53;;;;;;;;;;5034932;28;20224;-73
2023/01/06 13:51:13;;;;;;;7.63;6.78;;;;;;;;;;5036840;28;20466;-74
2023/01/06 13:53:41;;;;;;;9.80;7.00;;;;;;;;;;5037286;28;20082;-73
2023/01/06 13:56:13;;;;;;;12.73;9.05;;;;;;;;;;5031502;28;20182;-74
2023/01/06 13:58:39;;;;;;;;;;;;;;;;;;5033480;28;20017;-73
2023/01/06 14:01:11;;;;;;;8.70;6.63;;;;;;;;;;5034093;28;20019;-73
2023/01/06 14:03:37;;;;;;;;;;;;;;;;;;5039437;28;20469;-74
2023/01/06 14:06:03;;;;;;;10.07;6.45;;;;;;;;;;5031843;28;19911;-74
2023/01/06 14:08:36;;;;;;;7.15;6.43;;;;;;;;;;5034447;28;20033;-73
2023/01/06 14:11:03;;;;;;;9.65;6.68;;;;;;;;;;5034583;28;20055;-73
2023/01/06 14:13:39;;;;;;;9.02;6.78;;;;;;;;;;5036430;28;20091;-73
2023/01/06 14:16:10;;;;;;;8.23;6.60;;;;;;;;;;5032417;28;20029;-73
2023/01/06 14:19:02;;;;;;;9.18;6.78;;;;;;;;;;5033201;28;20051;-73
2023/01/06 14:21:29;;;;;;;8.45;6.57;;;;;;;;;;5030784;28;20571;-73
2023/01/06 14:24:05;;;;;;;8.20;7.13;;;;;;;;;;5036248;28;20024;-73
2023/01/06 14:26:47;;;;;;;12.77;6.78;;;;;;;;;;5033986;28;20041;-73
2023/01/06 14:29:32;;;;;;;10.88;6.90;;;;;;;;;;5036058;28;20060;-73
2023/01/06 14:31:58;;;;;;;7.05;6.07;;;;;;;;;;5034043;28;20037;-73
2023/01/06 14:34:24;;;;;;;8.90;6.20;;;;;;;;;;5033182;28;20017;-73
2023/01/06 14:36:51;;;;;;;6.32;5.63;;;;;;;;;;5033206;28;20032;-73
2023/01/06 14:39:19;;;;;;;8.52;5.90;;;;;;;;;;5034366;28;20082;-74
2023/01/06 14:41:51;;;;;;;7.38;6.30;;;;;;;;;;5034908;28;20719;-73
2023/01/06 14:44:18;;;;;;;11.82;6.80;;;;;;;;;;5033540;28;20078;-74
2023/01/06 14:46:50;;;;;;;9.32;6.38;;;;;;;;;;5033588;28;20373;-73
2023/01/06 14:49:21;;;;;;;7.32;6.15;;;;;;;;;;5035098;28;20116;-74
2023/01/06 14:51:47;;;;;;;12.95;6.97;;;;;;;;;;5034477;28;20462;-73
2023/01/06 14:54:30;;;;;;;12.70;6.50;;;;;;;;;;5042060;28;20029;-74
2023/01/06 14:57:02;;;;;;;8.05;5.70;;;;;;;;;;5035788;28;20021;-74